sensor_id;sensor_type;location;lat;lon;timestamp;P1;durP1;ratioP1;P2;durP2;ratioP2
29412;SDS011;16389;50.126;8.450;2024-03-02T00:00:21;7.28;;;5.50;;
29412;SDS011;16389;50.126;8.450;2024-03-02T00:05:16;7.25;;;5.90;;
29412;SDS011;16389;50.126;8.450;2024-03-02T00:07:55;6.65;;;5.97;;
29412;SDS011;16389;50.126;8.450;2024-03-02T00:10:24;5.90;;;5.35;;
29412;SDS011;16389;50.126;8.450;2024-03-02T00:12:54;5.95;;;5.20;;
29412;SDS011;16389;50.126;8.450;2024-03-02T00:18:16;6.40;;;5.03;;
29412;SDS011;16389;50.126;8.450;2024-03-02T00:20:44;6.00;;;5.40;;
29412;SDS011;16389;50.126;8.450;2024-03-02T00:23:10;14.95;;;7.20;;
29412;SDS011;16389;50.126;8.450;2024-03-02T00:25:41;6.25;;;5.50;;
29412;SDS011;16389;50.126;8.450;2024-03-02T00:28:16;6.78;;;5.75;;
29412;SDS011;16389;50.126;8.450;2024-03-02T00:33:14;6.65;;;5.93;;
29412;SDS011;16389;50.126;8.450;2024-03-02T00:35:40;7.85;;;6.43;;
29412;SDS011;16389;50.126;8.450;2024-03-02T00:38:08;8.50;;;7.20;;
29412;SDS011;16389;50.126;8.450;2024-03-02T00:40:34;7.68;;;6.90;;
29412;SDS011;16389;50.126;8.450;2024-03-02T00:43:00;10.43;;;7.05;;
29412;SDS011;16389;50.126;8.450;2024-03-02T00:45:27;9.52;;;7.43;;
29412;SDS011;16389;50.126;8.450;2024-03-02T00:47:53;9.05;;;8.15;;
29412;SDS011;16389;50.126;8.450;2024-03-02T00:50:18;10.73;;;8.60;;
29412;SDS011;16389;50.126;8.450;2024-03-02T00:52:44;10.73;;;8.40;;
29412;SDS011;16389;50.126;8.450;2024-03-02T00:55:10;11.63;;;8.20;;
29412;SDS011;16389;50.126;8.450;2024-03-02T00:57:37;9.65;;;8.35;;
29412;SDS011;16389;50.126;8.450;2024-03-02T01:00:03;11.88;;;9.70;;
29412;SDS011;16389;50.126;8.450;2024-03-02T01:02:33;10.07;;;9.10;;
29412;SDS011;16389;50.126;8.450;2024-03-02T01:04:59;9.55;;;8.55;;
29412;SDS011;16389;50.126;8.450;2024-03-02T01:07:24;9.43;;;7.88;;
29412;SDS011;16389;50.126;8.450;2024-03-02T01:09:50;9.50;;;8.50;;
29412;SDS011;16389;50.126;8.450;2024-03-02T01:12:15;10.95;;;8.90;;
29412;SDS011;16389;50.126;8.450;2024-03-02T01:14:41;11.63;;;9.45;;
29412;SDS011;16389;50.126;8.450;2024-03-02T01:17:07;10.48;;;8.50;;
29412;SDS011;16389;50.126;8.450;2024-03-02T01:19:32;10.05;;;9.07;;
29412;SDS011;16389;50.126;8.450;2024-03-02T01:21:58;14.30;;;9.65;;
29412;SDS011;16389;50.126;8.450;2024-03-02T01:24:24;11.93;;;10.18;;
29412;SDS011;16389;50.126;8.450;2024-03-02T01:26:49;9.52;;;8.52;;
29412;SDS011;16389;50.126;8.450;2024-03-02T01:29:15;9.95;;;8.95;;
29412;SDS011;16389;50.126;8.450;2024-03-02T01:31:41;10.93;;;9.18;;
29412;SDS011;16389;50.126;8.450;2024-03-02T01:34:10;10.65;;;9.07;;
29412;SDS011;16389;50.126;8.450;2024-03-02T01:36:37;11.27;;;9.35;;
29412;SDS011;16389;50.126;8.450;2024-03-02T01:39:03;12.40;;;9.68;;
29412;SDS011;16389;50.126;8.450;2024-03-02T01:41:28;10.88;;;8.30;;
29412;SDS011;16389;50.126;8.450;2024-03-02T01:43:54;13.95;;;9.52;;
29412;SDS011;16389;50.126;8.450;2024-03-02T01:46:19;9.35;;;8.40;;
29412;SDS011;16389;50.126;8.450;2024-03-02T01:48:45;10.57;;;8.95;;
29412;SDS011;16389;50.126;8.450;2024-03-02T01:51:10;16.58;;;9.85;;
29412;SDS011;16389;50.126;8.450;2024-03-02T01:53:36;11.13;;;9.07;;
29412;SDS011;16389;50.126;8.450;2024-03-02T01:56:02;12.70;;;9.77;;
29412;SDS011;16389;50.126;8.450;2024-03-02T01:58:28;12.18;;;9.77;;
29412;SDS011;16389;50.126;8.450;2024-03-02T02:00:53;14.95;;;9.40;;
29412;SDS011;16389;50.126;8.450;2024-03-02T02:03:19;11.32;;;10.13;;
29412;SDS011;16389;50.126;8.450;2024-03-02T02:05:45;12.10;;;9.75;;
29412;SDS011;16389;50.126;8.450;2024-03-02T02:08:12;12.15;;;10.07;;
29412;SDS011;16389;50.126;8.450;2024-03-02T02:10:38;10.48;;;9.38;;
29412;SDS011;16389;50.126;8.450;2024-03-02T02:13:04;13.02;;;10.73;;
29412;SDS011;16389;50.126;8.450;2024-03-02T02:15:29;23.90;;;12.00;;
29412;SDS011;16389;50.126;8.450;2024-03-02T02:17:56;12.98;;;10.60;;
29412;SDS011;16389;50.126;8.450;2024-03-02T02:20:22;15.57;;;10.85;;
29412;SDS011;16389;50.126;8.450;2024-03-02T02:23:07;14.80;;;12.80;;
29412;SDS011;16389;50.126;8.450;2024-03-02T02:25:34;19.23;;;13.18;;
29412;SDS011;16389;50.126;8.450;2024-03-02T02:28:00;20.30;;;13.85;;
29412;SDS011;16389;50.126;8.450;2024-03-02T02:30:26;15.98;;;11.52;;
29412;SDS011;16389;50.126;8.450;2024-03-02T02:32:57;18.63;;;12.13;;
29412;SDS011;16389;50.126;8.450;2024-03-02T02:35:23;16.90;;;12.10;;
29412;SDS011;16389;50.126;8.450;2024-03-02T02:37:49;23.13;;;12.57;;
29412;SDS011;16389;50.126;8.450;2024-03-02T02:40:16;18.63;;;12.80;;
29412;SDS011;16389;50.126;8.450;2024-03-02T02:42:43;15.25;;;11.98;;
29412;SDS011;16389;50.126;8.450;2024-03-02T02:45:09;15.63;;;12.45;;
29412;SDS011;16389;50.126;8.450;2024-03-02T02:47:36;20.20;;;13.88;;
29412;SDS011;16389;50.126;8.450;2024-03-02T02:50:02;16.85;;;12.80;;
29412;SDS011;16389;50.126;8.450;2024-03-02T02:52:32;18.20;;;12.55;;
29412;SDS011;16389;50.126;8.450;2024-03-02T02:55:00;20.48;;;13.38;;
29412;SDS011;16389;50.126;8.450;2024-03-02T02:57:27;22.27;;;14.00;;
29412;SDS011;16389;50.126;8.450;2024-03-02T02:59:55;21.52;;;13.55;;
29412;SDS011;16389;50.126;8.450;2024-03-02T03:02:20;20.80;;;13.40;;
29412;SDS011;16389;50.126;8.450;2024-03-02T03:04:46;22.48;;;13.77;;
29412;SDS011;16389;50.126;8.450;2024-03-02T03:07:11;20.80;;;14.00;;
29412;SDS011;16389;50.126;8.450;2024-03-02T03:09:37;27.25;;;16.45;;
29412;SDS011;16389;50.126;8.450;2024-03-02T03:12:03;21.63;;;13.73;;
29412;SDS011;16389;50.126;8.450;2024-03-02T03:14:29;20.92;;;14.20;;
29412;SDS011;16389;50.126;8.450;2024-03-02T03:16:55;21.48;;;15.15;;
29412;SDS011;16389;50.126;8.450;2024-03-02T03:19:20;20.58;;;14.52;;
29412;SDS011;16389;50.126;8.450;2024-03-02T03:21:46;26.92;;;15.75;;
29412;SDS011;16389;50.126;8.450;2024-03-02T03:24:11;29.52;;;13.43;;
29412;SDS011;16389;50.126;8.450;2024-03-02T03:26:37;24.55;;;14.43;;
29412;SDS011;16389;50.126;8.450;2024-03-02T03:29:03;22.20;;;13.90;;
29412;SDS011;16389;50.126;8.450;2024-03-02T03:31:29;19.85;;;12.55;;
29412;SDS011;16389;50.126;8.450;2024-03-02T03:33:54;21.77;;;13.23;;
29412;SDS011;16389;50.126;8.450;2024-03-02T03:36:20;24.17;;;14.45;;
29412;SDS011;16389;50.126;8.450;2024-03-02T03:38:45;24.23;;;13.50;;
29412;SDS011;16389;50.126;8.450;2024-03-02T03:41:11;25.27;;;14.27;;
29412;SDS011;16389;50.126;8.450;2024-03-02T03:43:37;23.52;;;13.40;;
29412;SDS011;16389;50.126;8.450;2024-03-02T03:46:02;23.38;;;14.55;;
29412;SDS011;16389;50.126;8.450;2024-03-02T03:48:31;26.05;;;14.10;;
29412;SDS011;16389;50.126;8.450;2024-03-02T03:50:56;24.65;;;14.45;;
29412;SDS011;16389;50.126;8.450;2024-03-02T03:53:22;22.25;;;13.50;;
29412;SDS011;16389;50.126;8.450;2024-03-02T03:55:49;25.45;;;13.95;;
29412;SDS011;16389;50.126;8.450;2024-03-02T03:58:15;24.48;;;15.48;;
29412;SDS011;16389;50.126;8.450;2024-03-02T04:00:42;22.55;;;13.82;;
29412;SDS011;16389;50.126;8.450;2024-03-02T04:03:07;25.15;;;13.90;;
29412;SDS011;16389;50.126;8.450;2024-03-02T04:05:33;21.55;;;13.88;;
29412;SDS011;16389;50.126;8.450;2024-03-02T04:07:58;17.38;;;12.77;;
29412;SDS011;16389;50.126;8.450;2024-03-02T04:10:25;20.75;;;12.13;;
29412;SDS011;16389;50.126;8.450;2024-03-02T04:12:50;21.05;;;13.98;;
29412;SDS011;16389;50.126;8.450;2024-03-02T04:15:16;20.40;;;13.45;;
29412;SDS011;16389;50.126;8.450;2024-03-02T04:17:43;15.13;;;12.02;;
29412;SDS011;16389;50.126;8.450;2024-03-02T04:20:09;19.30;;;12.00;;
29412;SDS011;16389;50.126;8.450;2024-03-02T04:22:37;19.10;;;12.35;;
29412;SDS011;16389;50.126;8.450;2024-03-02T04:25:03;25.95;;;14.15;;
29412;SDS011;16389;50.126;8.450;2024-03-02T04:27:29;20.98;;;12.82;;
29412;SDS011;16389;50.126;8.450;2024-03-02T04:29:56;21.73;;;13.07;;
29412;SDS011;16389;50.126;8.450;2024-03-02T04:32:22;21.60;;;12.82;;
29412;SDS011;16389;50.126;8.450;2024-03-02T04:34:48;22.23;;;13.25;;
29412;SDS011;16389;50.126;8.450;2024-03-02T04:37:13;24.58;;;14.10;;
29412;SDS011;16389;50.126;8.450;2024-03-02T04:39:39;28.80;;;14.10;;
29412;SDS011;16389;50.126;8.450;2024-03-02T04:42:05;20.30;;;13.52;;
29412;SDS011;16389;50.126;8.450;2024-03-02T04:44:31;21.73;;;13.85;;
29412;SDS011;16389;50.126;8.450;2024-03-02T04:46:56;24.02;;;13.90;;
29412;SDS011;16389;50.126;8.450;2024-03-02T04:49:23;28.67;;;14.43;;
29412;SDS011;16389;50.126;8.450;2024-03-02T04:51:48;17.45;;;12.05;;
29412;SDS011;16389;50.126;8.450;2024-03-02T04:54:15;20.83;;;12.70;;
29412;SDS011;16389;50.126;8.450;2024-03-02T04:56:41;23.92;;;13.80;;
29412;SDS011;16389;50.126;8.450;2024-03-02T04:59:10;19.63;;;12.75;;
29412;SDS011;16389;50.126;8.450;2024-03-02T05:01:35;23.40;;;13.48;;
29412;SDS011;16389;50.126;8.450;2024-03-02T05:04:01;21.33;;;13.43;;
29412;SDS011;16389;50.126;8.450;2024-03-02T05:06:27;19.75;;;13.77;;
29412;SDS011;16389;50.126;8.450;2024-03-02T05:08:52;20.45;;;13.35;;
29412;SDS011;16389;50.126;8.450;2024-03-02T05:11:18;24.13;;;14.32;;
29412;SDS011;16389;50.126;8.450;2024-03-02T05:14:01;26.23;;;13.80;;
29412;SDS011;16389;50.126;8.450;2024-03-02T05:16:27;22.90;;;13.23;;
29412;SDS011;16389;50.126;8.450;2024-03-02T05:18:53;21.95;;;13.98;;
29412;SDS011;16389;50.126;8.450;2024-03-02T05:21:18;25.33;;;14.13;;
29412;SDS011;16389;50.126;8.450;2024-03-02T05:23:44;28.70;;;15.32;;
29412;SDS011;16389;50.126;8.450;2024-03-02T05:26:09;27.88;;;15.63;;
29412;SDS011;16389;50.126;8.450;2024-03-02T05:28:37;27.63;;;14.98;;
29412;SDS011;16389;50.126;8.450;2024-03-02T05:31:03;31.17;;;16.58;;
29412;SDS011;16389;50.126;8.450;2024-03-02T05:33:29;32.60;;;16.13;;
29412;SDS011;16389;50.126;8.450;2024-03-02T05:35:56;25.58;;;15.93;;
29412;SDS011;16389;50.126;8.450;2024-03-02T05:38:22;23.38;;;14.25;;
29412;SDS011;16389;50.126;8.450;2024-03-02T05:40:48;19.75;;;14.32;;
29412;SDS011;16389;50.126;8.450;2024-03-02T05:43:13;29.02;;;15.68;;
29412;SDS011;16389;50.126;8.450;2024-03-02T05:45:39;27.17;;;16.02;;
29412;SDS011;16389;50.126;8.450;2024-03-02T05:48:06;40.00;;;17.05;;
29412;SDS011;16389;50.126;8.450;2024-03-02T05:50:32;28.60;;;16.80;;
29412;SDS011;16389;50.126;8.450;2024-03-02T05:52:58;35.97;;;17.05;;
29412;SDS011;16389;50.126;8.450;2024-03-02T05:55:24;29.10;;;17.17;;
29412;SDS011;16389;50.126;8.450;2024-03-02T05:57:49;34.92;;;17.13;;
29412;SDS011;16389;50.126;8.450;2024-03-02T06:00:44;34.97;;;17.17;;
29412;SDS011;16389;50.126;8.450;2024-03-02T06:03:10;32.13;;;17.25;;
29412;SDS011;16389;50.126;8.450;2024-03-02T06:05:36;30.50;;;17.15;;
29412;SDS011;16389;50.126;8.450;2024-03-02T06:08:01;33.28;;;18.33;;
29412;SDS011;16389;50.126;8.450;2024-03-02T06:10:27;29.13;;;16.30;;
29412;SDS011;16389;50.126;8.450;2024-03-02T06:12:52;27.27;;;16.80;;
29412;SDS011;16389;50.126;8.450;2024-03-02T06:15:18;27.67;;;16.38;;
29412;SDS011;16389;50.126;8.450;2024-03-02T06:17:44;29.60;;;16.52;;
29412;SDS011;16389;50.126;8.450;2024-03-02T06:20:09;23.02;;;14.75;;
29412;SDS011;16389;50.126;8.450;2024-03-02T06:22:35;24.35;;;16.55;;
29412;SDS011;16389;50.126;8.450;2024-03-02T06:25:01;23.02;;;15.50;;
29412;SDS011;16389;50.126;8.450;2024-03-02T06:27:27;26.65;;;15.60;;
29412;SDS011;16389;50.126;8.450;2024-03-02T06:29:52;30.63;;;16.40;;
29412;SDS011;16389;50.126;8.450;2024-03-02T06:32:19;26.70;;;15.10;;
29412;SDS011;16389;50.126;8.450;2024-03-02T06:34:45;24.48;;;15.95;;
29412;SDS011;16389;50.126;8.450;2024-03-02T06:37:11;28.73;;;15.88;;
29412;SDS011;16389;50.126;8.450;2024-03-02T06:39:36;29.52;;;15.40;;
29412;SDS011;16389;50.126;8.450;2024-03-02T06:42:02;23.95;;;14.80;;
29412;SDS011;16389;50.126;8.450;2024-03-02T06:44:28;26.48;;;15.48;;
29412;SDS011;16389;50.126;8.450;2024-03-02T06:46:53;23.55;;;15.18;;
29412;SDS011;16389;50.126;8.450;2024-03-02T06:49:19;26.45;;;15.20;;
29412;SDS011;16389;50.126;8.450;2024-03-02T06:51:45;30.10;;;15.38;;
29412;SDS011;16389;50.126;8.450;2024-03-02T06:54:10;24.00;;;14.27;;
29412;SDS011;16389;50.126;8.450;2024-03-02T06:56:36;22.65;;;13.48;;
29412;SDS011;16389;50.126;8.450;2024-03-02T06:59:03;20.80;;;13.98;;
29412;SDS011;16389;50.126;8.450;2024-03-02T07:01:29;16.50;;;12.13;;
29412;SDS011;16389;50.126;8.450;2024-03-02T07:03:54;18.58;;;13.93;;
29412;SDS011;16389;50.126;8.450;2024-03-02T07:06:20;19.98;;;12.48;;
29412;SDS011;16389;50.126;8.450;2024-03-02T07:08:45;19.42;;;13.48;;
29412;SDS011;16389;50.126;8.450;2024-03-02T07:11:11;18.35;;;13.27;;
29412;SDS011;16389;50.126;8.450;2024-03-02T07:13:37;25.55;;;14.02;;
29412;SDS011;16389;50.126;8.450;2024-03-02T07:16:02;22.88;;;15.55;;
29412;SDS011;16389;50.126;8.450;2024-03-02T07:18:28;24.48;;;15.38;;
29412;SDS011;16389;50.126;8.450;2024-03-02T07:20:55;24.88;;;15.65;;
29412;SDS011;16389;50.126;8.450;2024-03-02T07:23:23;31.20;;;15.20;;
29412;SDS011;16389;50.126;8.450;2024-03-02T07:25:52;25.92;;;16.20;;
29412;SDS011;16389;50.126;8.450;2024-03-02T07:28:21;24.70;;;15.95;;
29412;SDS011;16389;50.126;8.450;2024-03-02T07:30:59;29.35;;;17.42;;
29412;SDS011;16389;50.126;8.450;2024-03-02T07:33:29;27.88;;;18.85;;
29412;SDS011;16389;50.126;8.450;2024-03-02T07:35:55;25.15;;;16.58;;
29412;SDS011;16389;50.126;8.450;2024-03-02T07:38:21;26.77;;;17.08;;
29412;SDS011;16389;50.126;8.450;2024-03-02T07:40:48;25.83;;;16.80;;
29412;SDS011;16389;50.126;8.450;2024-03-02T07:43:16;33.17;;;18.40;;
29412;SDS011;16389;50.126;8.450;2024-03-02T07:45:42;26.65;;;18.70;;
29412;SDS011;16389;50.126;8.450;2024-03-02T07:48:07;30.90;;;20.27;;
29412;SDS011;16389;50.126;8.450;2024-03-02T07:50:33;40.40;;;22.35;;
29412;SDS011;16389;50.126;8.450;2024-03-02T07:53:00;89.18;;;34.17;;
29412;SDS011;16389;50.126;8.450;2024-03-02T07:55:26;47.03;;;23.20;;
29412;SDS011;16389;50.126;8.450;2024-03-02T07:57:52;72.93;;;30.30;;
29412;SDS011;16389;50.126;8.450;2024-03-02T08:00:17;78.82;;;34.72;;
29412;SDS011;16389;50.126;8.450;2024-03-02T08:02:43;41.35;;;20.95;;
29412;SDS011;16389;50.126;8.450;2024-03-02T08:05:09;33.88;;;19.10;;
29412;SDS011;16389;50.126;8.450;2024-03-02T08:07:35;32.10;;;20.73;;
29412;SDS011;16389;50.126;8.450;2024-03-02T08:10:01;29.52;;;18.15;;
29412;SDS011;16389;50.126;8.450;2024-03-02T08:12:26;72.45;;;32.28;;
29412;SDS011;16389;50.126;8.450;2024-03-02T08:14:52;74.82;;;33.35;;
29412;SDS011;16389;50.126;8.450;2024-03-02T08:17:17;42.20;;;24.15;;
29412;SDS011;16389;50.126;8.450;2024-03-02T08:19:43;23.85;;;16.92;;
29412;SDS011;16389;50.126;8.450;2024-03-02T08:22:09;25.60;;;17.65;;
29412;SDS011;16389;50.126;8.450;2024-03-02T08:24:35;21.00;;;15.95;;
29412;SDS011;16389;50.126;8.450;2024-03-02T08:27:01;18.23;;;16.05;;
29412;SDS011;16389;50.126;8.450;2024-03-02T08:29:27;18.35;;;15.35;;
29412;SDS011;16389;50.126;8.450;2024-03-02T08:31:53;20.45;;;16.10;;
29412;SDS011;16389;50.126;8.450;2024-03-02T08:34:19;17.67;;;15.88;;
29412;SDS011;16389;50.126;8.450;2024-03-02T08:36:45;19.30;;;16.35;;
29412;SDS011;16389;50.126;8.450;2024-03-02T08:39:11;23.00;;;16.38;;
29412;SDS011;16389;50.126;8.450;2024-03-02T08:41:49;21.60;;;16.73;;
29412;SDS011;16389;50.126;8.450;2024-03-02T08:44:15;17.13;;;15.32;;
29412;SDS011;16389;50.126;8.450;2024-03-02T08:46:41;19.63;;;16.27;;
29412;SDS011;16389;50.126;8.450;2024-03-02T08:49:07;18.85;;;15.82;;
29412;SDS011;16389;50.126;8.450;2024-03-02T08:51:33;18.45;;;15.55;;
29412;SDS011;16389;50.126;8.450;2024-03-02T08:53:59;16.88;;;14.90;;
29412;SDS011;16389;50.126;8.450;2024-03-02T08:56:24;18.52;;;16.48;;
29412;SDS011;16389;50.126;8.450;2024-03-02T08:58:50;20.50;;;17.13;;
29412;SDS011;16389;50.126;8.450;2024-03-02T09:01:17;18.58;;;15.15;;
29412;SDS011;16389;50.126;8.450;2024-03-02T09:03:43;16.92;;;14.25;;
29412;SDS011;16389;50.126;8.450;2024-03-02T09:06:12;14.25;;;12.95;;
29412;SDS011;16389;50.126;8.450;2024-03-02T09:08:39;13.73;;;12.30;;
29412;SDS011;16389;50.126;8.450;2024-03-02T09:11:07;13.68;;;12.32;;
29412;SDS011;16389;50.126;8.450;2024-03-02T09:13:34;13.07;;;11.75;;
29412;SDS011;16389;50.126;8.450;2024-03-02T09:16:00;13.77;;;12.18;;
29412;SDS011;16389;50.126;8.450;2024-03-02T09:18:25;12.90;;;11.80;;
29412;SDS011;16389;50.126;8.450;2024-03-02T09:20:51;12.20;;;10.85;;
29412;SDS011;16389;50.126;8.450;2024-03-02T09:23:17;11.68;;;10.57;;
29412;SDS011;16389;50.126;8.450;2024-03-02T09:25:43;16.05;;;13.20;;
29412;SDS011;16389;50.126;8.450;2024-03-02T09:28:08;11.73;;;10.63;;
29412;SDS011;16389;50.126;8.450;2024-03-02T09:30:34;17.40;;;13.00;;
29412;SDS011;16389;50.126;8.450;2024-03-02T09:33:00;17.25;;;15.27;;
29412;SDS011;16389;50.126;8.450;2024-03-02T09:35:25;14.00;;;12.68;;
29412;SDS011;16389;50.126;8.450;2024-03-02T09:37:55;13.90;;;12.38;;
29412;SDS011;16389;50.126;8.450;2024-03-02T09:40:21;21.92;;;16.55;;
29412;SDS011;16389;50.126;8.450;2024-03-02T09:42:47;16.83;;;13.82;;
29412;SDS011;16389;50.126;8.450;2024-03-02T09:47:50;17.17;;;14.38;;
29412;SDS011;16389;50.126;8.450;2024-03-02T09:50:15;39.55;;;20.77;;
29412;SDS011;16389;50.126;8.450;2024-03-02T09:52:42;13.27;;;11.90;;
29412;SDS011;16389;50.126;8.450;2024-03-02T09:55:08;11.55;;;10.45;;
29412;SDS011;16389;50.126;8.450;2024-03-02T09:57:34;10.73;;;9.80;;
29412;SDS011;16389;50.126;8.450;2024-03-02T10:00:00;10.98;;;9.95;;
29412;SDS011;16389;50.126;8.450;2024-03-02T10:02:25;23.42;;;15.90;;
29412;SDS011;16389;50.126;8.450;2024-03-02T10:04:51;12.13;;;10.82;;
29412;SDS011;16389;50.126;8.450;2024-03-02T10:07:17;11.15;;;10.05;;
29412;SDS011;16389;50.126;8.450;2024-03-02T10:09:47;12.13;;;11.05;;
29412;SDS011;16389;50.126;8.450;2024-03-02T10:14:40;11.35;;;10.15;;
29412;SDS011;16389;50.126;8.450;2024-03-02T10:17:10;11.27;;;10.23;;
29412;SDS011;16389;50.126;8.450;2024-03-02T10:19:37;11.63;;;10.63;;
29412;SDS011;16389;50.126;8.450;2024-03-02T10:22:04;11.38;;;9.55;;
29412;SDS011;16389;50.126;8.450;2024-03-02T10:24:43;10.38;;;9.43;;
29412;SDS011;16389;50.126;8.450;2024-03-02T10:27:22;11.25;;;10.20;;
29412;SDS011;16389;50.126;8.450;2024-03-02T10:29:48;11.90;;;10.18;;
29412;SDS011;16389;50.126;8.450;2024-03-02T10:32:15;11.20;;;10.20;;
29412;SDS011;16389;50.126;8.450;2024-03-02T10:34:41;10.85;;;9.80;;
29412;SDS011;16389;50.126;8.450;2024-03-02T10:37:10;11.73;;;10.73;;
29412;SDS011;16389;50.126;8.450;2024-03-02T10:39:36;11.68;;;10.57;;
29412;SDS011;16389;50.126;8.450;2024-03-02T10:42:03;11.48;;;10.35;;
29412;SDS011;16389;50.126;8.450;2024-03-02T10:44:29;12.15;;;10.55;;
29412;SDS011;16389;50.126;8.450;2024-03-02T10:46:55;11.15;;;10.15;;
29412;SDS011;16389;50.126;8.450;2024-03-02T10:49:25;11.48;;;10.48;;
29412;SDS011;16389;50.126;8.450;2024-03-02T10:51:52;12.38;;;10.32;;
29412;SDS011;16389;50.126;8.450;2024-03-02T10:54:18;12.38;;;11.23;;
29412;SDS011;16389;50.126;8.450;2024-03-02T10:56:50;10.98;;;9.90;;
29412;SDS011;16389;50.126;8.450;2024-03-02T11:02:00;10.88;;;9.77;;
29412;SDS011;16389;50.126;8.450;2024-03-02T11:04:28;11.00;;;10.00;;
29412;SDS011;16389;50.126;8.450;2024-03-02T11:09:24;9.90;;;9.05;;
29412;SDS011;16389;50.126;8.450;2024-03-02T11:12:15;12.33;;;10.60;;
29412;SDS011;16389;50.126;8.450;2024-03-02T11:14:44;10.48;;;9.48;;
29412;SDS011;16389;50.126;8.450;2024-03-02T11:17:10;10.30;;;9.30;;
29412;SDS011;16389;50.126;8.450;2024-03-02T11:19:42;11.18;;;10.13;;
29412;SDS011;16389;50.126;8.450;2024-03-02T11:22:09;10.13;;;9.32;;
29412;SDS011;16389;50.126;8.450;2024-03-02T11:24:36;10.45;;;9.48;;
29412;SDS011;16389;50.126;8.450;2024-03-02T11:27:03;10.25;;;9.35;;
29412;SDS011;16389;50.126;8.450;2024-03-02T11:32:13;10.07;;;9.02;;
29412;SDS011;16389;50.126;8.450;2024-03-02T11:34:44;9.07;;;8.27;;
29412;SDS011;16389;50.126;8.450;2024-03-02T11:37:14;9.95;;;9.05;;
29412;SDS011;16389;50.126;8.450;2024-03-02T11:39:44;10.18;;;9.18;;
29412;SDS011;16389;50.126;8.450;2024-03-02T11:42:11;9.82;;;8.95;;
29412;SDS011;16389;50.126;8.450;2024-03-02T11:44:39;9.07;;;8.30;;
29412;SDS011;16389;50.126;8.450;2024-03-02T11:47:14;9.73;;;8.77;;
29412;SDS011;16389;50.126;8.450;2024-03-02T11:49:48;9.43;;;8.68;;
29412;SDS011;16389;50.126;8.450;2024-03-02T11:52:16;10.30;;;9.40;;
29412;SDS011;16389;50.126;8.450;2024-03-02T11:54:44;9.32;;;8.63;;
29412;SDS011;16389;50.126;8.450;2024-03-02T11:57:17;8.95;;;8.25;;
29412;SDS011;16389;50.126;8.450;2024-03-02T11:59:44;10.35;;;9.45;;
29412;SDS011;16389;50.126;8.450;2024-03-02T12:02:16;8.65;;;7.90;;
29412;SDS011;16389;50.126;8.450;2024-03-02T12:04:44;9.57;;;8.15;;
29412;SDS011;16389;50.126;8.450;2024-03-02T12:07:11;8.95;;;8.25;;
29412;SDS011;16389;50.126;8.450;2024-03-02T12:09:37;8.75;;;8.05;;
29412;SDS011;16389;50.126;8.450;2024-03-02T12:12:07;9.48;;;8.68;;
29412;SDS011;16389;50.126;8.450;2024-03-02T12:14:36;7.78;;;7.25;;
29412;SDS011;16389;50.126;8.450;2024-03-02T12:17:14;8.25;;;7.65;;
29412;SDS011;16389;50.126;8.450;2024-03-02T12:19:40;8.80;;;8.07;;
29412;SDS011;16389;50.126;8.450;2024-03-02T12:22:05;8.90;;;8.10;;
29412;SDS011;16389;50.126;8.450;2024-03-02T12:24:31;8.80;;;8.20;;
29412;SDS011;16389;50.126;8.450;2024-03-02T12:26:57;8.65;;;7.97;;
29412;SDS011;16389;50.126;8.450;2024-03-02T12:29:23;7.30;;;6.78;;
29412;SDS011;16389;50.126;8.450;2024-03-02T12:31:49;8.18;;;7.57;;
29412;SDS011;16389;50.126;8.450;2024-03-02T12:34:17;11.65;;;10.65;;
29412;SDS011;16389;50.126;8.450;2024-03-02T12:36:43;8.02;;;7.43;;
29412;SDS011;16389;50.126;8.450;2024-03-02T12:39:12;7.45;;;6.90;;
29412;SDS011;16389;50.126;8.450;2024-03-02T12:41:38;9.23;;;8.32;;
29412;SDS011;16389;50.126;8.450;2024-03-02T12:44:05;7.60;;;7.00;;
29412;SDS011;16389;50.126;8.450;2024-03-02T12:46:34;7.55;;;6.95;;
29412;SDS011;16389;50.126;8.450;2024-03-02T12:49:13;9.93;;;8.00;;
29412;SDS011;16389;50.126;8.450;2024-03-02T12:51:43;7.03;;;6.53;;
29412;SDS011;16389;50.126;8.450;2024-03-02T12:54:11;6.63;;;6.13;;
29412;SDS011;16389;50.126;8.450;2024-03-02T12:56:37;7.25;;;6.72;;
29412;SDS011;16389;50.126;8.450;2024-03-02T12:59:03;6.57;;;6.18;;
29412;SDS011;16389;50.126;8.450;2024-03-02T13:01:30;6.78;;;6.28;;
29412;SDS011;16389;50.126;8.450;2024-03-02T13:03:57;6.82;;;6.38;;
29412;SDS011;16389;50.126;8.450;2024-03-02T13:06:27;6.90;;;6.40;;
29412;SDS011;16389;50.126;8.450;2024-03-02T13:08:53;7.32;;;6.65;;
29412;SDS011;16389;50.126;8.450;2024-03-02T13:11:19;7.25;;;6.75;;
29412;SDS011;16389;50.126;8.450;2024-03-02T13:13:46;9.10;;;8.50;;
29412;SDS011;16389;50.126;8.450;2024-03-02T13:16:12;9.73;;;8.82;;
29412;SDS011;16389;50.126;8.450;2024-03-02T13:18:38;7.40;;;6.72;;
29412;SDS011;16389;50.126;8.450;2024-03-02T13:21:05;8.77;;;8.15;;
29412;SDS011;16389;50.126;8.450;2024-03-02T13:23:31;10.57;;;9.75;;
29412;SDS011;16389;50.126;8.450;2024-03-02T13:26:00;9.55;;;8.85;;
29412;SDS011;16389;50.126;8.450;2024-03-02T13:28:26;8.60;;;7.80;;
29412;SDS011;16389;50.126;8.450;2024-03-02T13:30:51;8.80;;;8.20;;
29412;SDS011;16389;50.126;8.450;2024-03-02T13:33:17;9.40;;;8.60;;
29412;SDS011;16389;50.126;8.450;2024-03-02T13:38:17;8.43;;;7.82;;
29412;SDS011;16389;50.126;8.450;2024-03-02T13:40:43;10.48;;;9.57;;
29412;SDS011;16389;50.126;8.450;2024-03-02T13:43:09;9.93;;;9.23;;
29412;SDS011;16389;50.126;8.450;2024-03-02T13:45:36;8.80;;;8.20;;
29412;SDS011;16389;50.126;8.450;2024-03-02T13:48:02;7.90;;;7.38;;
29412;SDS011;16389;50.126;8.450;2024-03-02T13:50:28;8.40;;;7.80;;
29412;SDS011;16389;50.126;8.450;2024-03-02T13:52:55;8.63;;;8.02;;
29412;SDS011;16389;50.126;8.450;2024-03-02T13:55:21;7.95;;;7.38;;
29412;SDS011;16389;50.126;8.450;2024-03-02T13:57:46;7.45;;;6.88;;
29412;SDS011;16389;50.126;8.450;2024-03-02T14:00:13;8.23;;;7.53;;
29412;SDS011;16389;50.126;8.450;2024-03-02T14:02:40;8.80;;;8.00;;
29412;SDS011;16389;50.126;8.450;2024-03-02T14:05:06;7.75;;;7.03;;
29412;SDS011;16389;50.126;8.450;2024-03-02T14:07:36;8.02;;;7.43;;
29412;SDS011;16389;50.126;8.450;2024-03-02T14:10:02;7.40;;;6.72;;
29412;SDS011;16389;50.126;8.450;2024-03-02T14:12:28;7.53;;;7.03;;
29412;SDS011;16389;50.126;8.450;2024-03-02T14:14:54;7.38;;;6.68;;
29412;SDS011;16389;50.126;8.450;2024-03-02T14:17:23;7.63;;;7.05;;
29412;SDS011;16389;50.126;8.450;2024-03-02T14:19:51;7.80;;;7.20;;
29412;SDS011;16389;50.126;8.450;2024-03-02T14:22:18;7.65;;;6.95;;
29412;SDS011;16389;50.126;8.450;2024-03-02T14:24:44;6.72;;;6.13;;
29412;SDS011;16389;50.126;8.450;2024-03-02T14:27:11;7.63;;;7.00;;
29412;SDS011;16389;50.126;8.450;2024-03-02T14:29:38;7.25;;;6.65;;
29412;SDS011;16389;50.126;8.450;2024-03-02T14:32:05;8.27;;;7.47;;
29412;SDS011;16389;50.126;8.450;2024-03-02T14:34:31;8.73;;;8.13;;
29412;SDS011;16389;50.126;8.450;2024-03-02T14:36:56;7.93;;;7.28;;
29412;SDS011;16389;50.126;8.450;2024-03-02T14:39:22;7.07;;;6.47;;
29412;SDS011;16389;50.126;8.450;2024-03-02T14:41:48;7.35;;;6.85;;
29412;SDS011;16389;50.126;8.450;2024-03-02T14:44:14;7.10;;;6.50;;
29412;SDS011;16389;50.126;8.450;2024-03-02T14:46:40;6.95;;;6.47;;
29412;SDS011;16389;50.126;8.450;2024-03-02T14:49:07;8.15;;;7.55;;
29412;SDS011;16389;50.126;8.450;2024-03-02T14:51:33;6.43;;;5.82;;